Flight Track Log - Related Links

Times and Time Zones

All times are in EDT time to prevent confusion due to time zone crossing. See the PDT4226 flight status page for this flight to view local times or setup timezone preferences in your user account.

Time Position Orientation Groundspeed Altitude Reporting Facility
EDT Latitude Longitude Course Direction KTS MPH feet Rate Location/Type
Tue 01:52:00 PM 41.9713 -75.9021 180° South  Level Estimated
Tue 01:53:00 PM 41.9106 -75.9107 186° South  Level FlightAware Approximate
Tue 01:54:00 PM 41.8515 -75.8906 154° Southeast  Level Estimated
Tue 01:55:00 PM 41.7923 -75.8706 160° South  Level Estimated
Tue 01:56:00 PM 41.7332 -75.8506 159° South  Level Estimated
Tue 01:57:00 PM 41.6730 -75.8375 171° South  Level FlightAware Approximate
Tue 01:58:00 PM 41.6138 -75.8174 153° Southeast  Level Estimated
Tue 01:59:00 PM 41.5547 -75.7973 161° South  Level Estimated
Tue 02:00:00 PM 41.4963 -75.7741 163° South  Level FlightAware Approximate
Tue 02:01:00 PM 41.4378 -75.7509 163° South  Level FlightAware Approximate
Tue 02:02:00 PM 41.3786 -75.7312 162° South  Level Estimated
Tue 02:03:00 PM 41.3206 -75.7058 162° South  Level FlightAware Approximate
Tue 02:04:00 PM 41.2626 -75.6806 162° South  Level FlightAware Approximate
Tue 02:05:00 PM 41.2047 -75.6553 162° South  Level FlightAware Approximate
Tue 02:06:00 PM 41.1467 -75.6302 162° South  Level FlightAware Approximate
Tue 02:07:00 PM 41.0873 -75.6117 159° South  Level Estimated
Tue 02:08:00 PM 41.0279 -75.5932 163° South  Level Estimated
Tue 02:09:00 PM 40.9703 -75.5666 161° South  Level FlightAware Approximate
Tue 02:10:00 PM 40.9127 -75.5400 161° South  Level FlightAware Approximate
Tue 02:11:00 PM 40.8551 -75.5135 161° South  Level FlightAware Approximate
Tue 02:12:00 PM 40.7954 -75.4967 190° South  Level Estimated
Tue 02:13:00 PM 40.7344 -75.4974 180° South  Level FlightAware Approximate
Tue 02:14:00 PM 40.6734 -75.4981 180° South  Level FlightAware Approximate
Tue 02:15:00 PM 40.6142 -75.4789 187° South  Level Estimated
Tue 02:15:43 PM 40.7000 -75.4500 143° Southeast 237 273 6,200  Level Philadelphia TRACON
Tue 02:16:00 PM 40.5537 -75.4896 188° South  Level FlightAware Approximate
Tue 02:16:25 PM 40.6500 -75.4667 194° South 217 250 5,900  Level Philadelphia TRACON
Tue 02:17:00 PM 40.4950 -75.4679 190° South  Level Estimated
Tue 02:17:19 PM 40.6000 -75.4833 194° South 222 255 5,600  Level Philadelphia TRACON
Tue 02:18:00 PM 40.4359 -75.4878 194° South  Level FlightAware Approximate
Tue 02:18:25 PM 40.5333 -75.4500 159° South 263 303 5,000  Level Philadelphia TRACON
Tue 02:19:00 PM 40.3768 -75.5076 194° South  Level FlightAware Approximate
Tue 02:19:20 PM 40.4833 -75.4000 143° Southeast 247 284 5,000  Level Philadelphia TRACON
Tue 02:20:00 PM 40.3202 -75.4775 143° Southeast  Level Estimated
Tue 02:20:19 PM 40.4167 -75.3667 159° South 238 274 5,000  Level Philadelphia TRACON
Tue 02:21:00 PM 40.2637 -75.4474 143° Southeast  Level Estimated
Tue 02:21:19 PM 40.3500 -75.3167 150° Southeast 237 273 5,000  Level Philadelphia TRACON
Tue 02:22:00 PM 40.2072 -75.4174 143° Southeast  Level Estimated
Tue 02:22:20 PM 40.3000 -75.3000 166° South 234 269 5,000  Level Philadelphia TRACON
Tue 02:23:32 PM 40.2167 -75.2667 163° South 231 266 4,700 -429 Descending Philadelphia TRACON
Tue 02:24:26 PM 40.1667 -75.2500 166° South 249 287 4,100 -368 Descending Philadelphia TRACON
Tue 02:25:26 PM 40.1000 -75.2167 159° South 245 282 4,000 -95 Descending Philadelphia TRACON
Tue 02:26:32 PM 40.0333 -75.2000 169° South 234 269 3,900  Descending Philadelphia TRACON
Tue 02:27:32 PM 39.9667 -75.1833 169° South 216 249 4,000 53 Climbing Philadelphia TRACON
Tue 02:28:26 PM 39.9167 -75.1500 153° Southeast 212 244 4,000 -450 Level Philadelphia TRACON
Tue 02:29:32 PM 39.8500 -75.1333 169° South 214 246 3,100 -632 Descending Philadelphia TRACON
Tue 02:30:20 PM 39.8167 -75.1167 159° South 194 223 2,800 -579 Descending Philadelphia TRACON
Tue 02:31:26 PM 39.7500 -75.1167 180° South 206 237 2,000 -429 Descending Philadelphia TRACON
Tue 02:32:26 PM 39.7333 -75.1667 247° West 168 193 1,900 -100 Descending Philadelphia TRACON
Tue 02:33:26 PM 39.7833 -75.1833 346° North 170 196 1,800 -381 Descending Philadelphia TRACON
Tue 02:34:32 PM 39.8167 -75.2000 339° North 138 159 1,100 -667 Descending Philadelphia TRACON
Tue 02:35:32 PM 39.8500 -75.2167 339° North 106 122 400 -700 Descending Philadelphia TRACON

Login

Don't have an account? Register now (free) for customized features, flight alerts, and more!